This is the latest recevied weather packets stored in our database for station/object YO8RXT-3. If no packets are shown the sender has not sent any weather packets the latest 1 day(s).
| Time | Temp. | Humidity | Pressure | Rain* | Wind** | Luminosity | Snow |
|---|---|---|---|---|---|---|---|
| 1836274077 | 17.22° C | 88% | 1026 hPa | - | 4.02 m/s, 300° | - | - |
| 1778036702 | 8.89° C | 66% | 1014 hPa | - | 3.58 m/s, 110° | - | - |
| 1778034903 | 10° C | 62% | 1013 hPa | - | 3.13 m/s, 110° | - | - |
| 1778033103 | 10° C | 62% | 1013 hPa | - | 2.68 m/s, 110° | - | - |
| 1778031303 | 11.11° C | 58% | 1013 hPa | - | 3.13 m/s, 110° | - | - |
| 1778029503 | 11.11° C | 62% | 1013 hPa | - | 3.58 m/s, 120° | - | - |
| 1778027702 | 11.11° C | 67% | 1013 hPa | - | 3.58 m/s, 120° | - | - |
| 1778025902 | 11.11° C | 72% | 1013 hPa | - | 4.02 m/s, 120° | - | - |
| 1778024103 | 12.22° C | 67% | 1013 hPa | - | 4.47 m/s, 110° | - | - |
| 1778022302 | 12.22° C | 67% | 1013 hPa | - | 4.92 m/s, 110° | - | - |
| 1778020503 | 12.78° C | 63% | 1013 hPa | - | 4.92 m/s, 110° | - | - |
| 1778018703 | 13.89° C | 59% | 1013 hPa | - | 4.92 m/s, 110° | - | - |
| 1778016903 | 13.89° C | 59% | 1013 hPa | - | 4.02 m/s, 100° | - | - |
| 1778015103 | 16.11° C | 52% | 1013 hPa | - | 2.68 m/s, 90° | - | - |
| 1778013302 | 17.78° C | 43% | 1013 hPa | - | 1.34 m/s, 130° | - | - |
| 1778009702 | 20° C | 38% | 1012 hPa | - | 1.34 m/s, 230° | - | - |
| 1778007902 | 20° C | 38% | 1012 hPa | - | 3.13 m/s, 180° | - | - |
| 1778006103 | 21.11° C | 35% | 1012 hPa | - | 3.13 m/s, 180° | - | - |
| 1778004302 | 22.22° C | 33% | 1012 hPa | - | 2.24 m/s, 180° | - | - |
| 1778002502 | 22.22° C | 31% | 1012 hPa | - | 2.68 m/s, 150° | - | - |
| 1778000703 | 23.89° C | 27% | 1012 hPa | - | 2.68 m/s, 120° | - | - |
| 1777998903 | 23.89° C | 27% | 1012 hPa | - | 2.68 m/s, 140° | - | - |
| 1777997102 | 25° C | - | - | - | 2.68 m/s, 110° | - | - |
| 1777995302 | 25° C | 26% | 1012 hPa | - | 2.68 m/s, 140° | - | - |
| 1777991702 | 26.11° C | 24% | 1012 hPa | - | 1.34 m/s, 90° | - | - |
* Rain since midnight (hover to see other rain measurements)
** Current wind speed in m/s (hover to see current wind gust speed)